Time;durP1;ratioP1;P1;durP2;ratioP2;P2;SDS_P1;SDS_P2;PMS_P1;PMS_P2;Temp;Humidity;BMP_temperature;BMP_pressure;BME280_temperature;BME280_humidity;BME280_pressure;Samples;Min_cycle;Max_cycle;Signal;HPM_P1;HPM_P2
2024/01/25 00:01:12;;;;;;;33.13;6.50;;;7.90;99.90;;;;;;5119853;28;20040;-70
2024/01/25 00:03:37;;;;;;;33.30;6.10;;;7.90;99.90;;;;;;5113510;28;20480;-71
2024/01/25 00:06:05;;;;;;;29.25;5.68;;;7.90;99.90;;;;;;5113754;28;20254;-69
2024/01/25 00:08:31;;;;;;;32.83;5.53;;;7.80;99.90;;;;;;5113515;28;20404;-68
2024/01/25 00:10:57;;;;;;;30.10;5.90;;;7.80;99.90;;;;;;5096016;28;20035;-69
2024/01/25 00:13:23;;;;;;;29.25;5.47;;;7.80;99.90;;;;;;5113171;28;20418;-69
2024/01/25 00:15:49;;;;;;;31.02;6.22;;;7.80;99.90;;;;;;5112888;28;20479;-69
2024/01/25 00:18:14;;;;;;;34.17;6.63;;;7.80;99.90;;;;;;5113164;28;20044;-69
2024/01/25 00:20:40;;;;;;;27.63;5.57;;;7.80;99.90;;;;;;5078939;28;20039;-70
2024/01/25 00:23:06;;;;;;;30.55;6.00;;;7.80;99.90;;;;;;5112911;28;20047;-69
2024/01/25 00:25:32;;;;;;;30.23;5.60;;;7.80;99.90;;;;;;5113120;28;20070;-69
2024/01/25 00:27:58;;;;;;;29.30;5.57;;;7.80;99.90;;;;;;5112782;28;20081;-69
2024/01/25 00:30:23;;;;;;;31.30;5.97;;;7.80;99.90;;;;;;5112692;28;20047;-69
2024/01/25 00:32:49;;;;;;;30.20;5.65;;;7.80;99.90;;;;;;5095819;28;20035;-69
2024/01/25 00:35:15;;;;;;;27.45;5.43;;;7.80;99.90;;;;;;5112594;28;20089;-69
2024/01/25 00:37:41;;;;;;;30.98;6.20;;;7.80;99.90;;;;;;5112666;28;20038;-70
2024/01/25 00:40:08;;;;;;;28.98;5.68;;;7.80;99.90;;;;;;5112432;28;20042;-70
2024/01/25 00:42:45;;;;;;;31.15;5.95;;;7.80;99.90;;;;;;5112713;28;20090;-70
2024/01/25 00:45:11;;;;;;;32.95;6.07;;;7.70;99.90;;;;;;5112134;28;20036;-69
2024/01/25 00:47:38;;;;;;;32.58;6.25;;;7.70;99.90;;;;;;5092070;28;20075;-70
2024/01/25 00:50:05;;;;;;;35.40;6.22;;;7.70;99.90;;;;;;5075361;28;20063;-70
2024/01/25 00:52:31;;;;;;;28.58;5.47;;;7.70;99.90;;;;;;5091801;28;20048;-70
2024/01/25 00:54:58;;;;;;;28.55;5.78;;;7.70;99.90;;;;;;5108814;28;20488;-70
2024/01/25 00:57:24;;;;;;;28.48;5.40;;;7.70;99.90;;;;;;5075415;28;20087;-71
2024/01/25 00:59:50;;;;;;;33.33;6.05;;;7.60;99.90;;;;;;5108712;28;20036;-70
2024/01/25 01:02:16;;;;;;;27.45;5.75;;;7.60;99.90;;;;;;5108680;28;20048;-70
2024/01/25 01:04:42;;;;;;;25.92;5.68;;;7.60;99.90;;;;;;5108893;28;20044;-69
2024/01/25 01:07:08;;;;;;;26.40;5.22;;;7.60;99.90;;;;;;5108622;28;20118;-70
2024/01/25 01:09:35;;;;;;;29.77;5.75;;;7.60;99.90;;;;;;5091879;28;20079;-69
2024/01/25 01:12:01;;;;;;;29.17;6.40;;;7.60;99.90;;;;;;5074777;28;20097;-69
2024/01/25 01:14:26;;;;;;;34.17;6.53;;;7.50;99.90;;;;;;5074722;28;20040;-69
2024/01/25 01:16:52;;;;;;;34.03;5.85;;;7.50;99.90;;;;;;5058049;28;20079;-69
2024/01/25 01:19:18;;;;;;;29.25;5.75;;;7.40;99.90;;;;;;5108522;28;20036;-69
2024/01/25 01:21:44;;;;;;;31.33;5.97;;;7.30;99.90;;;;;;5057967;28;20610;-69
2024/01/25 01:24:11;;;;;;;27.52;5.85;;;7.30;99.90;;;;;;5074682;28;20438;-69
2024/01/25 01:26:37;;;;;;;38.22;6.35;;;7.30;99.90;;;;;;5074545;28;20485;-69
2024/01/25 01:29:03;;;;;;;30.35;5.95;;;7.20;99.90;;;;;;5108485;28;20492;-69
2024/01/25 01:31:29;;;;;;;31.05;5.80;;;7.20;99.90;;;;;;5108281;28;20044;-70
2024/01/25 01:33:54;;;;;;;30.58;5.63;;;7.20;99.90;;;;;;5091326;28;20481;-68
2024/01/25 01:36:21;;;;;;;34.28;6.05;;;7.20;99.90;;;;;;5074577;28;20040;-69
2024/01/25 01:38:47;;;;;;;36.55;6.35;;;7.10;99.90;;;;;;5091271;28;20048;-69
2024/01/25 01:41:13;;;;;;;37.70;6.20;;;7.10;99.90;;;;;;5108299;28;20093;-69
2024/01/25 01:43:39;;;;;;;34.05;6.22;;;7.10;99.90;;;;;;5093314;28;20047;-69
2024/01/25 01:46:13;;;;;;;31.45;6.30;;;7.10;99.90;;;;;;5094632;28;20043;-69
2024/01/25 01:48:40;;;;;;;33.15;5.78;;;7.10;99.90;;;;;;5111961;28;20492;-69
2024/01/25 01:51:07;;;;;;;29.42;6.18;;;7.10;99.90;;;;;;5111930;28;20087;-69
2024/01/25 01:53:36;;;;;;;31.25;5.75;;;7.10;99.90;;;;;;5111588;28;20039;-69
2024/01/25 01:56:03;;;;;;;31.23;5.90;;;7.10;99.90;;;;;;5111310;28;20047;-69
2024/01/25 01:58:30;;;;;;;30.38;6.00;;;7.00;99.90;;;;;;5111840;28;20122;-70
2024/01/25 02:00:57;;;;;;;31.20;5.68;;;6.90;99.90;;;;;;5094586;28;20039;-69
2024/01/25 02:03:22;;;;;;;33.05;6.10;;;6.90;99.90;;;;;;5111690;28;20050;-70
2024/01/25 02:05:48;;;;;;;32.50;6.00;;;6.80;99.90;;;;;;5077962;28;20359;-70
2024/01/25 02:08:14;;;;;;;32.35;5.80;;;6.80;99.90;;;;;;5111477;28;20051;-70
2024/01/25 02:10:40;;;;;;;37.05;6.07;;;6.80;99.90;;;;;;5111345;28;20039;-69
2024/01/25 02:13:06;;;;;;;34.75;6.45;;;6.70;99.90;;;;;;5111347;28;20126;-70
2024/01/25 02:15:32;;;;;;;36.15;6.47;;;6.60;99.90;;;;;;5111572;28;20040;-70
2024/01/25 02:17:58;;;;;;;31.25;6.47;;;6.60;99.90;;;;;;5094432;28;20040;-70
2024/01/25 02:20:24;;;;;;;36.30;6.57;;;6.60;99.90;;;;;;5111724;28;20036;-79
2024/01/25 02:22:50;;;;;;;34.55;6.32;;;6.50;99.90;;;;;;5111339;28;20392;-78
2024/01/25 02:25:16;;;;;;;32.03;5.97;;;6.50;99.90;;;;;;5111558;28;20255;-79
2024/01/25 02:27:42;;;;;;;30.48;6.03;;;6.50;99.90;;;;;;5111119;28;20039;-78
2024/01/25 02:30:08;;;;;;;33.83;6.07;;;6.40;99.90;;;;;;5094397;28;20526;-79
2024/01/25 02:32:34;;;;;;;33.42;6.22;;;6.40;99.90;;;;;;5094340;28;20043;-79
2024/01/25 02:35:00;;;;;;;32.30;6.68;;;6.30;99.90;;;;;;5111075;28;20384;-79
2024/01/25 02:37:26;;;;;;;34.08;6.45;;;6.30;99.90;;;;;;5094383;28;20071;-79
2024/01/25 02:39:53;;;;;;;33.60;6.28;;;6.30;99.90;;;;;;5108896;28;20086;-78
2024/01/25 02:42:19;;;;;;;31.50;5.70;;;6.30;99.90;;;;;;5097851;28;20039;-79
2024/01/25 02:44:45;;;;;;;32.42;6.43;;;6.30;99.90;;;;;;5098272;28;20039;-78
2024/01/25 02:47:10;;;;;;;35.60;6.10;;;6.20;99.90;;;;;;5114762;28;20039;-79
2024/01/25 02:49:36;;;;;;;35.05;6.35;;;6.20;99.90;;;;;;5114763;28;20048;-79
2024/01/25 02:52:02;;;;;;;32.67;6.03;;;6.10;99.90;;;;;;5114570;28;20081;-78
2024/01/25 02:54:27;;;;;;;31.52;6.28;;;6.10;99.90;;;;;;5098075;28;20111;-79
2024/01/25 02:56:54;;;;;;;30.85;5.57;;;6.10;99.90;;;;;;5114960;28;20044;-78
2024/01/25 02:59:20;;;;;;;31.63;6.10;;;6.00;99.90;;;;;;5114588;28;20088;-78
2024/01/25 03:01:46;;;;;;;39.13;6.10;;;6.00;99.90;;;;;;5097358;28;20371;-78
2024/01/25 03:04:11;;;;;;;35.15;6.22;;;5.90;99.90;;;;;;5080668;28;20044;-79
2024/01/25 03:06:37;;;;;;;36.47;6.35;;;5.90;99.90;;;;;;5097347;28;20040;-77
2024/01/25 03:09:06;;;;;;;37.50;6.40;;;5.90;99.90;;;;;;5114275;28;20404;-78
2024/01/25 03:11:32;;;;;;;38.83;6.10;;;5.90;99.90;;;;;;5114429;28;20036;-78
2024/01/25 03:13:58;;;;;;;32.78;5.90;;;5.90;99.90;;;;;;5097493;28;20039;-78
2024/01/25 03:16:23;;;;;;;34.35;6.07;;;5.90;99.90;;;;;;5114415;28;20031;-78
2024/01/25 03:18:49;;;;;;;35.33;6.57;;;5.80;99.90;;;;;;5114113;28;20035;-78
2024/01/25 03:21:15;;;;;;;34.75;6.70;;;5.80;99.90;;;;;;5097033;28;20558;-78
2024/01/25 03:23:41;;;;;;;38.13;6.05;;;5.80;99.90;;;;;;5096969;28;20457;-78
2024/01/25 03:26:06;;;;;;;34.63;6.22;;;5.70;99.90;;;;;;5097213;28;20047;-77
2024/01/25 03:28:35;;;;;;;34.30;6.30;;;5.70;99.90;;;;;;5096996;28;20092;-77
2024/01/25 03:31:01;;;;;;;34.75;6.32;;;5.60;99.90;;;;;;5097230;28;20135;-70
2024/01/25 03:33:28;;;;;;;33.63;5.78;;;5.60;99.90;;;;;;5113877;28;20122;-70
2024/01/25 03:35:54;;;;;;;42.28;6.38;;;5.60;99.90;;;;;;5113446;28;20075;-70
2024/01/25 03:38:20;;;;;;;39.88;5.85;;;5.60;99.90;;;;;;5113609;28;20071;-70
2024/01/25 03:40:46;;;;;;;40.47;6.50;;;5.60;99.90;;;;;;5096710;28;20066;-70
2024/01/25 03:43:12;;;;;;;37.92;6.32;;;5.60;99.90;;;;;;5113599;28;20094;-70
2024/01/25 03:45:38;;;;;;;35.58;6.43;;;5.60;99.90;;;;;;5096583;28;20089;-69
2024/01/25 03:48:04;;;;;;;36.97;7.22;;;5.50;99.90;;;;;;5113485;28;20079;-70
2024/01/25 03:50:29;;;;;;;35.88;5.70;;;5.50;99.90;;;;;;5095680;28;20086;-70
2024/01/25 03:52:55;;;;;;;33.40;6.22;;;5.50;99.90;;;;;;5113423;28;20509;-70
2024/01/25 03:55:21;;;;;;;31.35;5.57;;;5.50;99.90;;;;;;5096330;28;20059;-70
2024/01/25 03:57:47;;;;;;;35.97;6.40;;;5.40;99.90;;;;;;5079535;28;20510;-70
2024/01/25 04:00:13;;;;;;;39.22;6.70;;;5.50;99.90;;;;;;5113589;28;20048;-70
2024/01/25 04:02:39;;;;;;;40.60;6.32;;;5.40;99.90;;;;;;5079541;28;20391;-70
2024/01/25 04:05:05;;;;;;;38.72;6.95;;;5.40;99.90;;;;;;5096437;28;20126;-70
2024/01/25 04:07:31;;;;;;;35.97;6.20;;;5.30;99.90;;;;;;5113087;28;20047;-70
2024/01/25 04:09:57;;;;;;;39.55;6.65;;;5.30;99.90;;;;;;5113034;28;20040;-70
2024/01/25 04:12:24;;;;;;;39.17;6.93;;;5.20;99.90;;;;;;5113097;28;20039;-70
2024/01/25 04:14:50;;;;;;;42.75;6.55;;;5.20;99.90;;;;;;5113400;28;20365;-70
2024/01/25 04:17:16;;;;;;;35.45;6.22;;;5.20;99.90;;;;;;5095910;28;20037;-71
2024/01/25 04:19:42;;;;;;;34.90;6.07;;;5.20;99.90;;;;;;5096257;28;20082;-70
2024/01/25 04:22:07;;;;;;;34.92;6.32;;;5.20;99.90;;;;;;5095869;28;20078;-70
2024/01/25 04:24:33;;;;;;;35.67;6.10;;;5.20;99.90;;;;;;5095962;28;20062;-71
2024/01/25 04:26:59;;;;;;;40.30;6.25;;;5.10;99.90;;;;;;5095831;28;20049;-70
2024/01/25 04:29:25;;;;;;;32.63;5.90;;;5.10;99.90;;;;;;5112758;28;20032;-71
2024/01/25 04:31:50;;;;;;;39.20;6.53;;;5.10;99.90;;;;;;5101424;28;20119;-70
2024/01/25 04:34:16;;;;;;;32.75;6.20;;;5.10;99.90;;;;;;5092288;28;20089;-70
2024/01/25 04:36:43;;;;;;;33.13;6.40;;;5.10;99.90;;;;;;5058674;28;20032;-70
2024/01/25 04:39:08;;;;;;;35.95;6.25;;;5.00;99.90;;;;;;5109403;28;20035;-70
2024/01/25 04:41:35;;;;;;;38.38;6.70;;;5.00;99.90;;;;;;5109056;28;20036;-70
2024/01/25 04:44:01;;;;;;;38.05;6.60;;;5.00;99.90;;;;;;5092102;28;20127;-70
2024/01/25 04:46:27;;;;;;;33.40;6.38;;;5.00;99.90;;;;;;5092321;28;20530;-70
2024/01/25 04:48:52;;;;;;;36.25;6.50;;;5.20;99.90;;;;;;5108990;28;20172;-70
2024/01/25 04:51:22;;;;;;;39.00;6.00;;;5.00;99.90;;;;;;5075169;28;20050;-70
2024/01/25 04:53:48;;;;;;;39.95;6.30;;;5.00;99.90;;;;;;5075086;28;20051;-71
2024/01/25 04:56:13;;;;;;;42.80;6.50;;;5.00;99.90;;;;;;5108842;28;20052;-70
2024/01/25 04:58:39;;;;;;;40.22;6.60;;;5.00;99.90;;;;;;5075297;28;20043;-70
2024/01/25 05:01:06;;;;;;;37.97;6.03;;;5.00;99.90;;;;;;5108581;28;20040;-70
2024/01/25 05:03:33;;;;;;;35.33;6.32;;;5.00;99.90;;;;;;5092080;28;20047;-70
2024/01/25 05:05:58;;;;;;;32.33;6.00;;;5.00;99.90;;;;;;5092021;28;20541;-70
2024/01/25 05:08:24;;;;;;;34.10;6.28;;;5.00;99.90;;;;;;5108708;28;20047;-70
2024/01/25 05:10:50;;;;;;;40.35;6.53;;;5.00;99.90;;;;;;5108689;28;20164;-70
2024/01/25 05:13:16;;;;;;;33.55;6.22;;;5.00;99.90;;;;;;5074917;28;20040;-70
2024/01/25 05:15:41;;;;;;;37.22;6.32;;;5.00;99.90;;;;;;5074844;28;20127;-70
2024/01/25 05:18:07;;;;;;;43.00;6.57;;;5.00;99.90;;;;;;5074723;28;20040;-70
2024/01/25 05:20:34;;;;;;;34.17;6.28;;;5.00;99.90;;;;;;5074716;28;20044;-70
2024/01/25 05:23:01;;;;;;;44.35;6.55;;;4.90;99.90;;;;;;5074625;28;20044;-70
2024/01/25 05:25:27;;;;;;;32.40;6.20;;;5.00;99.90;;;;;;5091553;28;20040;-71
2024/01/25 05:27:54;;;;;;;33.05;5.95;;;5.00;99.90;;;;;;5086996;28;20031;-70
2024/01/25 05:30:21;;;;;;;41.65;6.53;;;4.90;99.90;;;;;;5112088;28;20056;-71
2024/01/25 05:32:48;;;;;;;33.58;6.40;;;4.90;99.90;;;;;;5094925;28;20437;-70
2024/01/25 05:35:14;;;;;;;41.47;6.22;;;4.90;99.90;;;;;;5094833;28;20122;-70
2024/01/25 05:37:40;;;;;;;39.25;6.28;;;4.90;99.90;;;;;;5078284;28;20176;-70
2024/01/25 05:40:06;;;;;;;40.45;6.53;;;4.80;99.90;;;;;;5111834;28;20040;-71
2024/01/25 05:42:32;;;;;;;37.65;6.32;;;4.90;99.90;;;;;;5095007;28;20083;-71
2024/01/25 05:44:58;;;;;;;42.97;6.68;;;4.80;99.90;;;;;;5077865;28;20155;-70
2024/01/25 05:47:24;;;;;;;35.63;6.22;;;4.80;99.90;;;;;;5094746;28;20043;-70
2024/01/25 05:49:49;;;;;;;36.42;6.40;;;4.70;99.90;;;;;;5111901;28;20046;-77
2024/01/25 05:52:16;;;;;;;38.75;6.22;;;4.70;99.90;;;;;;5111883;28;20093;-78
2024/01/25 05:54:43;;;;;;;38.63;6.85;;;4.80;99.90;;;;;;5111617;28;20118;-78
2024/01/25 05:57:09;;;;;;;39.65;6.90;;;4.70;99.90;;;;;;5094716;28;20097;-78
2024/01/25 05:59:35;;;;;;;39.75;6.35;;;4.70;99.90;;;;;;5077921;28;20036;-77
2024/01/25 06:02:01;;;;;;;38.35;6.70;;;4.70;99.90;;;;;;5094851;28;20032;-78
2024/01/25 06:04:26;;;;;;;33.33;5.90;;;4.70;99.90;;;;;;5078006;28;20049;-77
2024/01/25 06:06:52;;;;;;;31.75;6.38;;;4.70;99.90;;;;;;5111936;28;20050;-78
2024/01/25 06:09:18;;;;;;;35.30;6.20;;;4.70;99.90;;;;;;5061100;28;20040;-78
2024/01/25 06:11:44;;;;;;;38.15;6.28;;;4.70;99.90;;;;;;5077863;28;20058;-76
2024/01/25 06:14:10;;;;;;;40.83;6.75;;;4.70;99.90;;;;;;5113642;28;20039;-78
2024/01/25 06:16:36;;;;;;;37.17;6.35;;;4.70;99.90;;;;;;5115368;28;20103;-77
2024/01/25 06:19:03;;;;;;;41.78;6.88;;;4.60;99.90;;;;;;5098330;28;20043;-77
2024/01/25 06:21:29;;;;;;;37.22;6.40;;;4.60;99.90;;;;;;5115311;28;20114;-78
2024/01/25 06:23:55;;;;;;;37.70;7.03;;;4.60;99.90;;;;;;5080890;28;20504;-78
2024/01/25 06:26:20;;;;;;;38.67;6.30;;;4.60;99.90;;;;;;5098638;28;20078;-78
2024/01/25 06:28:46;;;;;;;36.28;5.70;;;4.60;99.90;;;;;;5098466;28;20085;-78
2024/01/25 06:31:12;;;;;;;43.30;6.65;;;4.60;99.90;;;;;;5081160;28;20043;-75
2024/01/25 06:33:37;;;;;;;48.15;6.72;;;4.60;99.90;;;;;;5064632;28;20444;-78
2024/01/25 06:36:03;;;;;;;38.60;6.25;;;4.50;99.90;;;;;;5098068;28;20479;-78
2024/01/25 06:38:29;;;;;;;40.13;6.38;;;4.50;99.90;;;;;;5098009;28;20511;-78
2024/01/25 06:40:55;;;;;;;42.38;6.50;;;4.50;99.90;;;;;;5081171;28;20495;-78
2024/01/25 06:43:20;;;;;;;41.55;6.53;;;4.40;99.90;;;;;;5081320;28;20560;-78
2024/01/25 06:45:46;;;;;;;38.80;6.55;;;4.40;99.90;;;;;;5097771;28;20075;-77
2024/01/25 06:48:12;;;;;;;37.60;6.15;;;4.40;99.90;;;;;;5098118;28;20406;-79
2024/01/25 06:50:37;;;;;;;48.40;6.93;;;4.40;99.90;;;;;;5114807;28;20039;-78
2024/01/25 06:53:04;;;;;;;38.90;6.13;;;4.40;99.90;;;;;;5114769;28;20047;-78
2024/01/25 06:55:30;;;;;;;38.85;6.10;;;4.40;99.90;;;;;;5097741;28;20047;-78
2024/01/25 06:57:55;;;;;;;38.72;6.28;;;4.30;99.90;;;;;;5114653;28;20514;-78
2024/01/25 07:00:22;;;;;;;36.65;6.68;;;4.40;99.90;;;;;;5081379;28;20073;-77
2024/01/25 07:02:48;;;;;;;38.15;6.47;;;4.40;99.90;;;;;;5098490;28;20530;-78
2024/01/25 07:05:14;;;;;;;37.10;6.18;;;4.40;99.90;;;;;;5025277;28;20067;-77
2024/01/25 07:07:39;;;;;;;40.28;6.53;;;4.40;99.90;;;;;;5086375;28;20051;-77
2024/01/25 07:10:08;;;;;;;38.03;6.88;;;4.40;99.90;;;;;;5116639;28;20051;-77
2024/01/25 07:12:34;;;;;;;39.75;6.63;;;4.30;99.90;;;;;;5124823;28;20044;-78
2024/01/25 07:15:00;;;;;;;38.08;6.88;;;4.40;99.90;;;;;;5106821;28;20054;-75
2024/01/25 07:17:26;;;;;;;30.88;5.70;;;4.40;99.90;;;;;;5123695;28;20089;-76
2024/01/25 07:19:51;;;;;;;32.45;5.60;;;4.40;99.90;;;;;;5101545;28;20048;-77
2024/01/25 07:22:18;;;;;;;42.92;6.82;;;4.40;99.90;;;;;;5123251;28;20048;-76
2024/01/25 07:24:44;;;;;;;39.08;6.57;;;4.30;99.90;;;;;;5138406;28;20051;-78
2024/01/25 07:27:10;;;;;;;44.25;6.85;;;4.30;99.90;;;;;;5121940;28;20061;-74
2024/01/25 07:29:36;;;;;;;38.97;6.43;;;4.30;99.90;;;;;;5139126;28;20020;-74
2024/01/25 07:32:03;;;;;;;40.35;6.65;;;4.30;99.90;;;;;;5122289;28;20071;-75
2024/01/25 07:34:29;;;;;;;36.72;6.68;;;4.30;99.90;;;;;;5104936;28;20039;-77
2024/01/25 07:36:54;;;;;;;41.58;6.78;;;4.30;99.90;;;;;;5122523;28;20027;-78
2024/01/25 07:39:20;;;;;;;41.50;6.57;;;4.30;99.90;;;;;;5122258;28;20075;-77
2024/01/25 07:41:46;;;;;;;36.85;6.30;;;4.30;99.90;;;;;;5139157;28;20066;-76
2024/01/25 07:44:13;;;;;;;41.20;6.85;;;4.30;99.90;;;;;;5138976;28;20032;-76
2024/01/25 07:46:39;;;;;;;42.13;7.32;;;4.30;99.90;;;;;;5105279;28;20028;-77
2024/01/25 07:49:05;;;;;;;39.17;6.93;;;4.30;99.90;;;;;;5122253;28;20050;-76
2024/01/25 07:51:30;;;;;;;41.88;6.35;;;4.30;99.90;;;;;;5139574;28;20170;-77
2024/01/25 07:53:56;;;;;;;43.92;6.90;;;4.30;99.90;;;;;;5139065;28;20047;-74
2024/01/25 07:56:22;;;;;;;46.03;7.07;;;4.40;99.90;;;;;;5128892;28;20547;-78
2024/01/25 07:58:48;;;;;;;45.28;6.78;;;4.40;99.90;;;;;;5105856;28;20488;-78
2024/01/25 08:01:18;;;;;;;38.63;6.82;;;4.40;99.90;;;;;;5123586;28;20087;-78
2024/01/25 08:03:44;;;;;;;40.05;6.70;;;4.40;99.90;;;;;;5119758;28;20074;-77
2024/01/25 08:06:11;;;;;;;43.38;7.00;;;4.50;99.90;;;;;;5099367;28;20048;-78
2024/01/25 08:08:37;;;;;;;39.58;7.18;;;4.50;99.90;;;;;;5096808;28;20127;-78
2024/01/25 08:11:04;;;;;;;44.40;7.50;;;4.60;99.90;;;;;;5077887;28;20051;-70
2024/01/25 08:13:30;;;;;;;40.85;7.10;;;4.60;99.90;;;;;;5093534;28;20126;-70
2024/01/25 08:15:58;;;;;;;41.95;7.05;;;4.70;99.90;;;;;;5077522;28;20169;-70
2024/01/25 08:18:25;;;;;;;34.95;6.75;;;4.80;99.90;;;;;;5113320;28;20056;-70
2024/01/25 08:20:50;;;;;;;40.50;7.05;;;4.70;99.90;;;;;;5096405;28;20050;-70
2024/01/25 08:23:18;;;;;;;43.17;7.38;;;5.00;99.90;;;;;;5112893;28;20047;-70
2024/01/25 08:25:44;;;;;;;41.45;6.93;;;4.90;99.90;;;;;;5113170;28;20047;-70
2024/01/25 08:28:10;;;;;;;42.25;6.82;;;4.90;99.90;;;;;;5113074;28;20046;-70
2024/01/25 08:30:36;;;;;;;47.60;7.45;;;5.00;99.90;;;;;;5112832;28;20039;-71
2024/01/25 08:33:02;;;;;;;37.22;7.22;;;5.00;99.90;;;;;;5112814;28;20042;-70
2024/01/25 08:35:27;;;;;;;41.05;7.38;;;5.00;99.90;;;;;;5078705;28;20122;-71
2024/01/25 08:37:53;;;;;;;39.97;7.28;;;5.10;99.90;;;;;;5095576;28;20031;-71
2024/01/25 08:40:19;;;;;;;38.35;6.82;;;5.10;99.90;;;;;;5062102;28;20074;-71
2024/01/25 08:42:45;;;;;;;40.50;7.22;;;5.20;99.90;;;;;;5112618;28;20144;-70
2024/01/25 08:45:11;;;;;;;40.55;6.75;;;5.20;99.90;;;;;;5112391;28;20488;-70
2024/01/25 08:47:36;;;;;;;36.45;6.55;;;5.20;99.90;;;;;;5095446;28;20380;-71
2024/01/25 08:50:03;;;;;;;39.97;7.22;;;5.20;99.90;;;;;;5112626;28;20531;-71
2024/01/25 08:52:29;;;;;;;42.08;6.82;;;5.20;99.90;;;;;;5112508;28;20527;-70
2024/01/25 08:54:55;;;;;;;38.10;7.05;;;5.20;99.90;;;;;;5112281;28;20051;-71
2024/01/25 08:57:21;;;;;;;36.03;6.72;;;5.30;99.90;;;;;;5095575;28;20035;-70
2024/01/25 08:59:46;;;;;;;41.42;7.50;;;5.30;99.90;;;;;;5112550;28;20058;-70
2024/01/25 09:02:12;;;;;;;43.75;7.57;;;5.30;99.90;;;;;;5112153;28;20032;-70
2024/01/25 09:04:40;;;;;;;39.20;6.57;;;5.30;99.90;;;;;;5095252;28;20047;-70
2024/01/25 09:07:06;;;;;;;40.60;6.80;;;5.30;99.90;;;;;;5095487;28;20040;-70
2024/01/25 09:09:32;;;;;;;41.00;7.47;;;5.30;99.90;;;;;;5112376;28;20035;-71
2024/01/25 09:11:57;;;;;;;42.28;8.10;;;5.30;99.90;;;;;;5090075;28;20089;-71
2024/01/25 09:14:23;;;;;;;42.47;7.30;;;5.30;99.90;;;;;;5091570;28;20044;-71
2024/01/25 09:16:50;;;;;;;40.13;7.20;;;5.40;99.90;;;;;;5091472;28;20036;-70
2024/01/25 09:19:15;;;;;;;46.00;7.53;;;5.40;99.90;;;;;;5058405;28;20496;-70
2024/01/25 09:21:41;;;;;;;33.28;6.40;;;5.40;99.90;;;;;;5091738;28;20055;-78
2024/01/25 09:24:07;;;;;;;40.17;7.25;;;5.70;99.90;;;;;;5092053;28;20075;-78
2024/01/25 09:26:33;;;;;;;40.03;7.30;;;5.60;99.90;;;;;;5091985;28;20071;-78
2024/01/25 09:28:59;;;;;;;39.30;7.65;;;5.70;99.90;;;;;;5091512;28;20040;-78
2024/01/25 09:31:24;;;;;;;37.45;7.20;;;5.70;99.90;;;;;;5091649;28;20098;-77
2024/01/25 09:33:51;;;;;;;39.08;7.03;;;5.80;99.90;;;;;;5091498;28;20062;-77
2024/01/25 09:36:17;;;;;;;39.67;7.57;;;5.80;99.90;;;;;;5057966;28;20093;-78
2024/01/25 09:38:43;;;;;;;45.03;8.00;;;5.90;99.90;;;;;;5058358;28;20127;-77
2024/01/25 09:41:09;;;;;;;37.97;8.15;;;5.90;99.90;;;;;;5091292;28;20455;-78
2024/01/25 09:43:36;;;;;;;41.05;7.93;;;6.00;99.90;;;;;;5091448;28;20039;-78
2024/01/25 09:46:02;;;;;;;35.15;7.30;;;6.00;99.90;;;;;;5074612;28;20047;-78
2024/01/25 09:48:28;;;;;;;43.72;8.55;;;6.10;99.90;;;;;;5075394;28;20040;-77
2024/01/25 09:50:55;;;;;;;38.13;8.05;;;6.10;99.90;;;;;;5062152;28;20149;-78
2024/01/25 09:53:22;;;;;;;41.40;7.90;;;6.10;99.90;;;;;;5095452;28;20147;-78
2024/01/25 09:56:05;;;;;;;48.50;8.82;;;6.20;99.90;;;;;;5078423;28;20496;-78
2024/01/25 09:58:37;;;;;;;39.63;7.70;;;6.20;99.90;;;;;;5078805;28;20047;-77
2024/01/25 10:01:03;;;;;;;38.75;8.00;;;6.20;99.90;;;;;;5095686;28;20085;-78
2024/01/25 10:03:30;;;;;;;35.53;7.15;;;6.20;99.90;;;;;;5078505;28;20079;-78
2024/01/25 10:05:56;;;;;;;44.95;8.25;;;6.20;99.90;;;;;;5078572;28;20040;-77
2024/01/25 10:08:23;;;;;;;45.33;8.32;;;6.20;99.90;;;;;;5094846;28;20481;-78
2024/01/25 10:10:50;;;;;;;38.05;7.85;;;6.30;99.90;;;;;;5098703;28;20130;-78
2024/01/25 10:13:15;;;;;;;41.03;7.78;;;6.30;99.90;;;;;;5098605;28;20521;-78
2024/01/25 10:15:41;;;;;;;42.47;7.78;;;6.40;99.90;;;;;;5098700;28;20039;-78
2024/01/25 10:18:12;;;;;;;32.92;7.93;;;6.40;99.90;;;;;;5115358;28;20035;-78
2024/01/25 10:20:40;;;;;;;39.45;8.10;;;6.50;99.90;;;;;;5115178;28;20043;-78
2024/01/25 10:23:06;;;;;;;38.92;7.80;;;6.50;99.90;;;;;;5115282;28;20122;-78
2024/01/25 10:25:36;;;;;;;37.45;7.90;;;6.50;99.90;;;;;;5115653;28;20395;-78
2024/01/25 10:28:04;;;;;;;48.47;8.35;;;6.50;99.90;;;;;;5115542;28;20040;-78
2024/01/25 10:30:33;;;;;;;38.47;7.68;;;6.50;99.90;;;;;;5098321;28;20044;-71
2024/01/25 10:32:59;;;;;;;41.40;8.25;;;6.50;99.90;;;;;;5115151;28;20039;-71
2024/01/25 10:35:26;;;;;;;40.35;8.23;;;6.60;99.90;;;;;;5098178;28;20127;-70
2024/01/25 10:37:52;;;;;;;37.58;8.43;;;6.60;99.90;;;;;;5114900;28;20074;-70
2024/01/25 10:40:19;;;;;;;45.53;8.10;;;6.60;99.90;;;;;;5114884;28;20092;-70
2024/01/25 10:42:45;;;;;;;38.90;8.18;;;6.60;99.90;;;;;;5098150;28;20053;-70
2024/01/25 10:45:11;;;;;;;41.40;8.70;;;6.70;99.90;;;;;;5097780;28;20092;-70
2024/01/25 10:47:37;;;;;;;41.47;8.50;;;6.70;99.90;;;;;;5115052;28;20109;-71
2024/01/25 10:50:04;;;;;;;41.22;8.27;;;6.90;99.90;;;;;;5098289;28;20504;-70
2024/01/25 10:52:31;;;;;;;39.50;8.57;;;7.00;99.90;;;;;;5097919;28;20075;-71
2024/01/25 10:54:58;;;;;;;42.13;8.30;;;7.20;99.90;;;;;;5114676;28;20065;-71
2024/01/25 10:57:24;;;;;;;44.83;8.50;;;7.30;99.90;;;;;;5114677;28;20043;-70
2024/01/25 10:59:50;;;;;;;43.80;9.25;;;7.40;99.90;;;;;;5097378;28;20047;-70
2024/01/25 11:02:19;;;;;;;37.15;7.60;;;7.40;99.90;;;;;;5097448;28;20041;-70
2024/01/25 11:04:55;;;;;;;38.40;7.78;;;7.60;99.90;;;;;;5092039;28;20036;-71
2024/01/25 11:07:21;;;;;;;34.60;7.70;;;7.70;99.90;;;;;;5097656;28;20035;-70
2024/01/25 11:09:51;;;;;;;36.00;7.85;;;7.80;99.90;;;;;;5114956;28;20032;-71
2024/01/25 11:12:19;;;;;;;41.83;8.20;;;7.90;99.90;;;;;;5097488;28;20415;-71
2024/01/25 11:14:45;;;;;;;39.38;8.00;;;8.00;99.90;;;;;;5097513;28;20092;-71
2024/01/25 11:17:21;;;;;;;38.00;7.75;;;8.10;99.90;;;;;;5114531;28;20036;-71
2024/01/25 11:19:50;;;;;;;38.00;7.78;;;8.20;99.90;;;;;;5097211;28;20036;-71
2024/01/25 11:22:15;;;;;;;33.72;7.75;;;8.30;99.90;;;;;;5114225;28;20043;-71
2024/01/25 11:24:42;;;;;;;34.53;7.88;;;8.40;99.90;;;;;;5113982;28;20039;-70
2024/01/25 11:27:10;;;;;;;32.05;7.88;;;8.50;99.90;;;;;;5097294;28;20078;-70
2024/01/25 11:29:39;;;;;;;41.55;7.80;;;8.60;99.90;;;;;;5097331;28;20035;-71
2024/01/25 11:32:06;;;;;;;34.35;7.80;;;8.60;99.90;;;;;;5097125;28;20055;-71
2024/01/25 11:34:31;;;;;;;38.22;8.00;;;8.60;99.90;;;;;;5097141;28;20036;-70
2024/01/25 11:37:00;;;;;;;36.90;8.23;;;8.60;99.90;;;;;;5063586;28;20040;-71
2024/01/25 11:39:26;;;;;;;36.58;7.72;;;8.70;99.90;;;;;;5096872;28;20040;-72
2024/01/25 11:41:52;;;;;;;29.70;7.50;;;8.70;99.90;;;;;;5096830;28;20120;-80
2024/01/25 11:44:18;;;;;;;31.98;7.40;;;8.80;99.90;;;;;;5113938;28;20043;-80
2024/01/25 11:46:44;;;;;;;38.67;7.80;;;8.80;99.90;;;;;;5063551;28;20043;-80
2024/01/25 11:49:09;;;;;;;36.55;7.68;;;8.80;99.90;;;;;;5096576;28;20049;-80
2024/01/25 11:51:35;;;;;;;31.88;7.38;;;8.80;99.90;;;;;;5113493;28;20043;-80
2024/01/25 11:54:01;;;;;;;30.00;6.70;;;8.70;99.90;;;;;;5096496;28;20044;-80
2024/01/25 11:56:31;;;;;;;34.95;7.40;;;8.80;99.90;;;;;;5113389;28;20144;-80
2024/01/25 11:58:57;;;;;;;30.90;7.18;;;8.70;99.90;;;;;;5096496;28;20036;-80
2024/01/25 12:01:24;;;;;;;35.05;7.55;;;8.70;99.90;;;;;;5091074;28;20104;-80
2024/01/25 12:03:51;;;;;;;35.28;7.18;;;8.60;99.90;;;;;;5096356;28;20127;-79
2024/01/25 12:06:17;;;;;;;33.28;7.70;;;8.60;99.90;;;;;;5096839;28;20436;-80
2024/01/25 12:08:44;;;;;;;34.80;7.68;;;8.50;99.90;;;;;;5096695;28;20048;-80
2024/01/25 12:11:11;;;;;;;39.90;7.93;;;8.50;99.90;;;;;;5071862;28;20051;-80
2024/01/25 12:13:44;;;;;;;38.45;8.25;;;8.50;99.90;;;;;;5072648;28;20113;-80
2024/01/25 12:16:10;;;;;;;38.17;8.13;;;8.50;99.90;;;;;;5039671;28;20040;-80
2024/01/25 12:18:38;;;;;;;31.02;7.50;;;8.40;99.90;;;;;;5089231;28;20095;-80
2024/01/25 12:21:05;;;;;;;34.55;7.60;;;8.40;99.90;;;;;;5072529;28;20054;-80
2024/01/25 12:23:38;;;;;;;32.95;7.07;;;8.40;99.90;;;;;;5072525;28;20080;-80
2024/01/25 12:26:06;;;;;;;36.08;8.23;;;8.50;99.90;;;;;;5072270;28;20067;-80
2024/01/25 12:28:32;;;;;;;37.03;7.80;;;8.40;99.90;;;;;;5072498;28;20566;-80
2024/01/25 12:30:59;;;;;;;30.80;6.95;;;8.40;99.90;;;;;;5072065;28;20093;-79
2024/01/25 12:33:25;;;;;;;30.25;6.70;;;8.40;99.90;;;;;;5089233;28;20041;-79
2024/01/25 12:35:51;;;;;;;32.42;6.78;;;8.40;99.90;;;;;;5089014;28;20174;-80
2024/01/25 12:38:17;;;;;;;35.03;7.05;;;8.40;99.90;;;;;;5072352;28;20071;-80
2024/01/25 12:40:48;;;;;;;32.90;7.22;;;8.40;99.90;;;;;;5071989;28;20040;-80
2024/01/25 12:43:15;;;;;;;30.63;7.18;;;8.50;99.90;;;;;;5071849;28;20041;-80